Terminal Aerodrome Forecast
Issued by NWS

Current Version | Previous Version | Text Only | Print | Product List | Glossary On
Versions: 1 2 3 4 5 6 7 8 9 10 11 12 13 14 15 16 17 18 19 20 21 22 23 24 25 26 27 28 29 30
000
FTUS41 KBGM 110900 AAA
TAFITH
TAF AMD
KITH 110900Z 1109/1206 VRB03KT P6SM FEW050
     FM111500 30006KT P6SM SCT050
      TEMPO 1117/1119 32009G18KT -SHRA OVC035
     FM111900 32007G14KT P6SM FEW050
     AMD NOT SKED=

USA.gov is the U.S. government's official web portal to all federal, state and local government web resources and services.